sensor_id;sensor_type;location;lat;lon;timestamp;P1;durP1;ratioP1;P2;durP2;ratioP2
4616;SDS011;2321;42.704;23.384;2023-04-03T00:01:42;74.90;;;12.90;;
4616;SDS011;2321;42.704;23.384;2023-04-03T00:04:09;72.50;;;11.77;;
4616;SDS011;2321;42.704;23.384;2023-04-03T00:06:37;66.47;;;11.33;;
4616;SDS011;2321;42.704;23.384;2023-04-03T00:09:04;59.47;;;10.47;;
4616;SDS011;2321;42.704;23.384;2023-04-03T00:11:31;65.93;;;12.13;;
4616;SDS011;2321;42.704;23.384;2023-04-03T00:13:58;68.43;;;13.63;;
4616;SDS011;2321;42.704;23.384;2023-04-03T00:16:25;62.27;;;10.20;;
4616;SDS011;2321;42.704;23.384;2023-04-03T00:18:52;90.40;;;13.80;;
4616;SDS011;2321;42.704;23.384;2023-04-03T00:21:19;134.73;;;19.10;;
4616;SDS011;2321;42.704;23.384;2023-04-03T00:23:47;75.67;;;13.13;;
4616;SDS011;2321;42.704;23.384;2023-04-03T00:26:14;51.97;;;9.43;;
4616;SDS011;2321;42.704;23.384;2023-04-03T00:28:40;77.17;;;13.07;;
4616;SDS011;2321;42.704;23.384;2023-04-03T00:31:07;78.60;;;14.33;;
4616;SDS011;2321;42.704;23.384;2023-04-03T00:33:34;58.83;;;11.37;;
4616;SDS011;2321;42.704;23.384;2023-04-03T00:36:05;71.60;;;12.80;;
4616;SDS011;2321;42.704;23.384;2023-04-03T00:38:32;65.77;;;13.13;;
4616;SDS011;2321;42.704;23.384;2023-04-03T00:41:01;58.40;;;11.60;;
4616;SDS011;2321;42.704;23.384;2023-04-03T00:43:28;59.70;;;12.33;;
4616;SDS011;2321;42.704;23.384;2023-04-03T00:45:56;71.77;;;13.60;;
4616;SDS011;2321;42.704;23.384;2023-04-03T00:48:26;43.23;;;9.13;;
4616;SDS011;2321;42.704;23.384;2023-04-03T00:50:55;47.47;;;9.70;;
4616;SDS011;2321;42.704;23.384;2023-04-03T00:53:25;60.30;;;10.37;;
4616;SDS011;2321;42.704;23.384;2023-04-03T00:55:55;73.47;;;12.97;;
4616;SDS011;2321;42.704;23.384;2023-04-03T00:58:25;63.60;;;11.90;;
4616;SDS011;2321;42.704;23.384;2023-04-03T01:00:57;58.47;;;10.73;;
4616;SDS011;2321;42.704;23.384;2023-04-03T01:03:29;75.50;;;12.03;;
4616;SDS011;2321;42.704;23.384;2023-04-03T01:05:56;73.90;;;14.10;;
4616;SDS011;2321;42.704;23.384;2023-04-03T01:08:24;51.50;;;9.27;;
4616;SDS011;2321;42.704;23.384;2023-04-03T01:10:51;47.33;;;10.13;;
4616;SDS011;2321;42.704;23.384;2023-04-03T01:13:19;61.17;;;11.30;;
4616;SDS011;2321;42.704;23.384;2023-04-03T01:15:49;62.20;;;11.77;;
4616;SDS011;2321;42.704;23.384;2023-04-03T01:18:16;51.70;;;10.47;;
4616;SDS011;2321;42.704;23.384;2023-04-03T01:23:58;65.63;;;13.03;;
4616;SDS011;2321;42.704;23.384;2023-04-03T01:26:33;100.20;;;21.27;;
4616;SDS011;2321;42.704;23.384;2023-04-03T01:29:00;61.27;;;15.90;;
4616;SDS011;2321;42.704;23.384;2023-04-03T01:31:30;50.87;;;13.23;;
4616;SDS011;2321;42.704;23.384;2023-04-03T01:34:00;54.33;;;15.77;;
4616;SDS011;2321;42.704;23.384;2023-04-03T01:36:28;59.60;;;20.10;;
4616;SDS011;2321;42.704;23.384;2023-04-03T01:38:57;56.63;;;20.10;;
4616;SDS011;2321;42.704;23.384;2023-04-03T01:41:25;68.33;;;21.83;;
4616;SDS011;2321;42.704;23.384;2023-04-03T01:43:52;80.03;;;28.10;;
4616;SDS011;2321;42.704;23.384;2023-04-03T01:46:19;103.87;;;44.90;;
4616;SDS011;2321;42.704;23.384;2023-04-03T01:48:46;97.00;;;47.60;;
4616;SDS011;2321;42.704;23.384;2023-04-03T01:51:15;95.87;;;39.73;;
4616;SDS011;2321;42.704;23.384;2023-04-03T01:53:42;91.90;;;43.13;;
4616;SDS011;2321;42.704;23.384;2023-04-03T01:56:09;131.70;;;52.27;;
4616;SDS011;2321;42.704;23.384;2023-04-03T01:58:36;109.87;;;49.23;;
4616;SDS011;2321;42.704;23.384;2023-04-03T02:01:03;95.67;;;44.83;;
4616;SDS011;2321;42.704;23.384;2023-04-03T02:03:30;157.33;;;66.67;;
4616;SDS011;2321;42.704;23.384;2023-04-03T02:05:57;346.43;;;103.40;;
4616;SDS011;2321;42.704;23.384;2023-04-03T02:08:26;71.40;;;37.20;;
4616;SDS011;2321;42.704;23.384;2023-04-03T02:10:52;87.17;;;42.77;;
4616;SDS011;2321;42.704;23.384;2023-04-03T02:13:19;56.20;;;29.23;;
4616;SDS011;2321;42.704;23.384;2023-04-03T02:15:46;78.37;;;35.13;;
4616;SDS011;2321;42.704;23.384;2023-04-03T02:18:14;102.77;;;41.27;;
4616;SDS011;2321;42.704;23.384;2023-04-03T02:20:41;210.13;;;81.43;;
4616;SDS011;2321;42.704;23.384;2023-04-03T02:23:08;111.87;;;57.87;;
4616;SDS011;2321;42.704;23.384;2023-04-03T02:25:36;88.57;;;41.20;;
4616;SDS011;2321;42.704;23.384;2023-04-03T02:28:03;98.77;;;45.10;;
4616;SDS011;2321;42.704;23.384;2023-04-03T02:30:31;96.60;;;48.40;;
4616;SDS011;2321;42.704;23.384;2023-04-03T02:32:58;76.27;;;35.90;;
4616;SDS011;2321;42.704;23.384;2023-04-03T02:35:25;78.73;;;35.63;;
4616;SDS011;2321;42.704;23.384;2023-04-03T02:37:51;95.70;;;37.67;;
4616;SDS011;2321;42.704;23.384;2023-04-03T02:40:18;82.37;;;34.43;;
4616;SDS011;2321;42.704;23.384;2023-04-03T02:42:47;82.60;;;32.43;;
4616;SDS011;2321;42.704;23.384;2023-04-03T02:45:13;66.30;;;22.30;;
4616;SDS011;2321;42.704;23.384;2023-04-03T02:47:40;87.70;;;24.27;;
4616;SDS011;2321;42.704;23.384;2023-04-03T02:50:07;65.20;;;19.40;;
4616;SDS011;2321;42.704;23.384;2023-04-03T02:52:35;53.97;;;17.00;;
4616;SDS011;2321;42.704;23.384;2023-04-03T02:55:02;65.73;;;21.87;;
4616;SDS011;2321;42.704;23.384;2023-04-03T02:57:29;58.40;;;21.40;;
4616;SDS011;2321;42.704;23.384;2023-04-03T02:59:57;52.50;;;18.97;;
4616;SDS011;2321;42.704;23.384;2023-04-03T03:02:24;76.37;;;22.87;;
4616;SDS011;2321;42.704;23.384;2023-04-03T03:04:51;56.10;;;14.57;;
4616;SDS011;2321;42.704;23.384;2023-04-03T03:07:17;67.40;;;23.80;;
4616;SDS011;2321;42.704;23.384;2023-04-03T03:09:44;75.53;;;30.00;;
4616;SDS011;2321;42.704;23.384;2023-04-03T03:12:11;78.20;;;32.53;;
4616;SDS011;2321;42.704;23.384;2023-04-03T03:14:38;98.07;;;37.10;;
4616;SDS011;2321;42.704;23.384;2023-04-03T03:17:07;71.80;;;25.50;;
4616;SDS011;2321;42.704;23.384;2023-04-03T03:19:33;89.87;;;31.67;;
4616;SDS011;2321;42.704;23.384;2023-04-03T03:22:00;89.50;;;28.80;;
4616;SDS011;2321;42.704;23.384;2023-04-03T03:24:27;143.47;;;59.57;;
4616;SDS011;2321;42.704;23.384;2023-04-03T03:26:54;143.20;;;56.27;;
4616;SDS011;2321;42.704;23.384;2023-04-03T03:29:21;186.37;;;67.70;;
4616;SDS011;2321;42.704;23.384;2023-04-03T03:31:48;201.87;;;67.43;;
4616;SDS011;2321;42.704;23.384;2023-04-03T03:34:16;213.73;;;71.83;;
4616;SDS011;2321;42.704;23.384;2023-04-03T03:36:43;182.63;;;64.80;;
4616;SDS011;2321;42.704;23.384;2023-04-03T03:39:10;181.57;;;66.67;;
4616;SDS011;2321;42.704;23.384;2023-04-03T03:41:39;190.73;;;70.53;;
4616;SDS011;2321;42.704;23.384;2023-04-03T03:44:05;172.73;;;68.70;;
4616;SDS011;2321;42.704;23.384;2023-04-03T03:46:32;183.33;;;72.37;;
4616;SDS011;2321;42.704;23.384;2023-04-03T03:48:59;168.93;;;62.80;;
4616;SDS011;2321;42.704;23.384;2023-04-03T03:51:27;189.30;;;60.67;;
4616;SDS011;2321;42.704;23.384;2023-04-03T03:53:54;173.30;;;65.13;;
4616;SDS011;2321;42.704;23.384;2023-04-03T03:56:21;178.77;;;62.47;;
4616;SDS011;2321;42.704;23.384;2023-04-03T03:58:48;169.23;;;61.23;;
4616;SDS011;2321;42.704;23.384;2023-04-03T04:01:15;160.30;;;64.10;;
4616;SDS011;2321;42.704;23.384;2023-04-03T04:03:43;184.97;;;71.97;;
4616;SDS011;2321;42.704;23.384;2023-04-03T04:06:10;190.13;;;65.57;;
4616;SDS011;2321;42.704;23.384;2023-04-03T04:08:38;164.57;;;60.47;;
4616;SDS011;2321;42.704;23.384;2023-04-03T04:11:05;158.70;;;57.53;;
4616;SDS011;2321;42.704;23.384;2023-04-03T04:13:32;179.30;;;64.97;;
4616;SDS011;2321;42.704;23.384;2023-04-03T04:15:59;72.40;;;35.63;;
4616;SDS011;2321;42.704;23.384;2023-04-03T04:18:27;110.83;;;47.00;;
4616;SDS011;2321;42.704;23.384;2023-04-03T04:20:54;82.03;;;38.90;;
4616;SDS011;2321;42.704;23.384;2023-04-03T04:23:20;120.73;;;47.90;;
4616;SDS011;2321;42.704;23.384;2023-04-03T04:25:49;88.87;;;39.57;;
4616;SDS011;2321;42.704;23.384;2023-04-03T04:28:16;91.83;;;42.70;;
4616;SDS011;2321;42.704;23.384;2023-04-03T04:30:43;88.27;;;33.40;;
4616;SDS011;2321;42.704;23.384;2023-04-03T04:33:10;46.73;;;19.33;;
4616;SDS011;2321;42.704;23.384;2023-04-03T04:35:38;86.17;;;30.20;;
4616;SDS011;2321;42.704;23.384;2023-04-03T04:38:07;71.57;;;24.80;;
4616;SDS011;2321;42.704;23.384;2023-04-03T04:40:34;71.60;;;29.10;;
4616;SDS011;2321;42.704;23.384;2023-04-03T04:43:04;73.90;;;31.00;;
4616;SDS011;2321;42.704;23.384;2023-04-03T04:45:31;84.13;;;36.67;;
4616;SDS011;2321;42.704;23.384;2023-04-03T04:47:58;73.57;;;34.50;;
4616;SDS011;2321;42.704;23.384;2023-04-03T04:50:24;74.13;;;37.27;;
4616;SDS011;2321;42.704;23.384;2023-04-03T04:52:51;99.57;;;41.67;;
4616;SDS011;2321;42.704;23.384;2023-04-03T04:55:18;79.03;;;31.30;;
4616;SDS011;2321;42.704;23.384;2023-04-03T04:57:45;68.00;;;27.37;;
4616;SDS011;2321;42.704;23.384;2023-04-03T05:00:14;52.87;;;16.30;;
4616;SDS011;2321;42.704;23.384;2023-04-03T05:02:42;63.07;;;24.27;;
4616;SDS011;2321;42.704;23.384;2023-04-03T05:05:09;54.87;;;19.20;;
4616;SDS011;2321;42.704;23.384;2023-04-03T05:07:36;81.83;;;21.43;;
4616;SDS011;2321;42.704;23.384;2023-04-03T05:10:03;59.20;;;25.73;;
4616;SDS011;2321;42.704;23.384;2023-04-03T05:12:31;83.53;;;36.90;;
4616;SDS011;2321;42.704;23.384;2023-04-03T05:14:58;87.77;;;38.77;;
4616;SDS011;2321;42.704;23.384;2023-04-03T05:17:26;78.30;;;38.57;;
4616;SDS011;2321;42.704;23.384;2023-04-03T05:19:53;74.27;;;28.30;;
4616;SDS011;2321;42.704;23.384;2023-04-03T05:22:20;81.20;;;38.83;;
4616;SDS011;2321;42.704;23.384;2023-04-03T05:24:47;108.67;;;47.43;;
4616;SDS011;2321;42.704;23.384;2023-04-03T05:27:14;107.83;;;54.57;;
4616;SDS011;2321;42.704;23.384;2023-04-03T05:29:42;108.97;;;57.10;;
4616;SDS011;2321;42.704;23.384;2023-04-03T05:32:09;111.00;;;56.57;;
4616;SDS011;2321;42.704;23.384;2023-04-03T05:34:37;124.47;;;58.07;;
4616;SDS011;2321;42.704;23.384;2023-04-03T05:37:04;78.13;;;42.07;;
4616;SDS011;2321;42.704;23.384;2023-04-03T05:39:31;71.10;;;28.63;;
4616;SDS011;2321;42.704;23.384;2023-04-03T05:41:58;66.60;;;17.77;;
4616;SDS011;2321;42.704;23.384;2023-04-03T05:44:25;47.53;;;17.93;;
4616;SDS011;2321;42.704;23.384;2023-04-03T05:46:51;109.00;;;55.13;;
4616;SDS011;2321;42.704;23.384;2023-04-03T05:49:18;145.47;;;66.93;;
4616;SDS011;2321;42.704;23.384;2023-04-03T05:51:47;149.73;;;66.73;;
4616;SDS011;2321;42.704;23.384;2023-04-03T05:54:15;133.80;;;65.43;;
4616;SDS011;2321;42.704;23.384;2023-04-03T05:56:45;141.43;;;64.80;;
4616;SDS011;2321;42.704;23.384;2023-04-03T05:59:12;48.50;;;18.40;;
4616;SDS011;2321;42.704;23.384;2023-04-03T06:01:39;53.17;;;17.30;;
4616;SDS011;2321;42.704;23.384;2023-04-03T06:04:06;65.57;;;21.57;;
4616;SDS011;2321;42.704;23.384;2023-04-03T06:06:48;74.47;;;24.33;;
4616;SDS011;2321;42.704;23.384;2023-04-03T06:09:16;53.80;;;19.23;;
4616;SDS011;2321;42.704;23.384;2023-04-03T06:11:44;71.73;;;19.47;;
4616;SDS011;2321;42.704;23.384;2023-04-03T06:14:11;75.17;;;20.17;;
4616;SDS011;2321;42.704;23.384;2023-04-03T06:16:38;82.13;;;21.33;;
4616;SDS011;2321;42.704;23.384;2023-04-03T06:19:06;60.13;;;17.43;;
4616;SDS011;2321;42.704;23.384;2023-04-03T06:21:33;51.60;;;15.00;;
4616;SDS011;2321;42.704;23.384;2023-04-03T06:24:02;60.83;;;17.17;;
4616;SDS011;2321;42.704;23.384;2023-04-03T06:26:29;59.90;;;16.27;;
4616;SDS011;2321;42.704;23.384;2023-04-03T06:28:57;47.27;;;15.43;;
4616;SDS011;2321;42.704;23.384;2023-04-03T06:31:24;52.60;;;15.70;;
4616;SDS011;2321;42.704;23.384;2023-04-03T06:33:50;71.43;;;18.47;;
4616;SDS011;2321;42.704;23.384;2023-04-03T06:36:18;63.73;;;15.00;;
4616;SDS011;2321;42.704;23.384;2023-04-03T06:38:46;63.23;;;21.77;;
4616;SDS011;2321;42.704;23.384;2023-04-03T06:41:15;89.17;;;48.47;;
4616;SDS011;2321;42.704;23.384;2023-04-03T06:43:42;124.03;;;66.93;;
4616;SDS011;2321;42.704;23.384;2023-04-03T06:46:12;157.33;;;82.93;;
4616;SDS011;2321;42.704;23.384;2023-04-03T06:48:40;142.57;;;81.10;;
4616;SDS011;2321;42.704;23.384;2023-04-03T06:51:10;153.10;;;94.00;;
4616;SDS011;2321;42.704;23.384;2023-04-03T06:53:43;155.23;;;78.43;;
4616;SDS011;2321;42.704;23.384;2023-04-03T06:56:11;71.27;;;26.30;;
4616;SDS011;2321;42.704;23.384;2023-04-03T06:58:39;42.87;;;10.50;;
4616;SDS011;2321;42.704;23.384;2023-04-03T07:01:07;37.73;;;15.20;;
4616;SDS011;2321;42.704;23.384;2023-04-03T07:03:34;146.97;;;85.37;;
4616;SDS011;2321;42.704;23.384;2023-04-03T07:06:02;128.43;;;76.53;;
4616;SDS011;2321;42.704;23.384;2023-04-03T07:08:29;60.57;;;32.73;;
4616;SDS011;2321;42.704;23.384;2023-04-03T07:10:56;126.70;;;80.17;;
4616;SDS011;2321;42.704;23.384;2023-04-03T07:13:23;81.13;;;43.47;;
4616;SDS011;2321;42.704;23.384;2023-04-03T07:15:51;101.63;;;59.77;;
4616;SDS011;2321;42.704;23.384;2023-04-03T07:18:19;72.97;;;28.70;;
4616;SDS011;2321;42.704;23.384;2023-04-03T07:20:46;116.20;;;62.90;;
4616;SDS011;2321;42.704;23.384;2023-04-03T07:23:13;76.23;;;43.87;;
4616;SDS011;2321;42.704;23.384;2023-04-03T07:25:42;84.27;;;42.40;;
4616;SDS011;2321;42.704;23.384;2023-04-03T07:28:10;74.27;;;21.63;;
4616;SDS011;2321;42.704;23.384;2023-04-03T07:30:47;81.43;;;36.70;;
4616;SDS011;2321;42.704;23.384;2023-04-03T07:33:17;66.20;;;32.07;;
4616;SDS011;2321;42.704;23.384;2023-04-03T07:35:45;72.80;;;35.43;;
4616;SDS011;2321;42.704;23.384;2023-04-03T07:38:12;61.77;;;43.37;;
4616;SDS011;2321;42.704;23.384;2023-04-03T07:40:40;74.37;;;46.50;;
4616;SDS011;2321;42.704;23.384;2023-04-03T07:43:11;80.40;;;51.40;;
4616;SDS011;2321;42.704;23.384;2023-04-03T07:45:38;59.30;;;39.27;;
4616;SDS011;2321;42.704;23.384;2023-04-03T07:48:05;55.53;;;15.67;;
4616;SDS011;2321;42.704;23.384;2023-04-03T07:50:33;39.80;;;18.53;;
4616;SDS011;2321;42.704;23.384;2023-04-03T07:53:01;54.10;;;30.33;;
4616;SDS011;2321;42.704;23.384;2023-04-03T07:55:28;72.07;;;44.43;;
4616;SDS011;2321;42.704;23.384;2023-04-03T07:57:55;77.73;;;44.93;;
4616;SDS011;2321;42.704;23.384;2023-04-03T08:00:22;61.03;;;43.73;;
4616;SDS011;2321;42.704;23.384;2023-04-03T08:02:49;42.23;;;15.47;;
4616;SDS011;2321;42.704;23.384;2023-04-03T08:05:16;50.77;;;10.77;;
4616;SDS011;2321;42.704;23.384;2023-04-03T08:07:45;39.53;;;8.47;;
4616;SDS011;2321;42.704;23.384;2023-04-03T08:10:13;38.70;;;8.00;;
4616;SDS011;2321;42.704;23.384;2023-04-03T08:12:40;44.77;;;9.37;;
4616;SDS011;2321;42.704;23.384;2023-04-03T08:15:07;46.37;;;9.07;;
4616;SDS011;2321;42.704;23.384;2023-04-03T08:17:35;36.13;;;7.63;;
4616;SDS011;2321;42.704;23.384;2023-04-03T08:20:02;41.57;;;8.03;;
4616;SDS011;2321;42.704;23.384;2023-04-03T08:22:31;42.10;;;9.70;;
4616;SDS011;2321;42.704;23.384;2023-04-03T08:24:59;32.07;;;7.70;;
4616;SDS011;2321;42.704;23.384;2023-04-03T08:27:27;42.73;;;8.70;;
4616;SDS011;2321;42.704;23.384;2023-04-03T08:29:54;34.57;;;7.60;;
4616;SDS011;2321;42.704;23.384;2023-04-03T08:32:21;50.33;;;10.17;;
4616;SDS011;2321;42.704;23.384;2023-04-03T08:34:49;40.37;;;8.67;;
4616;SDS011;2321;42.704;23.384;2023-04-03T08:37:16;35.73;;;7.30;;
4616;SDS011;2321;42.704;23.384;2023-04-03T08:39:43;44.37;;;8.20;;
4616;SDS011;2321;42.704;23.384;2023-04-03T08:42:14;35.57;;;8.63;;
4616;SDS011;2321;42.704;23.384;2023-04-03T08:44:47;30.30;;;6.97;;
4616;SDS011;2321;42.704;23.384;2023-04-03T08:47:25;25.17;;;6.53;;
4616;SDS011;2321;42.704;23.384;2023-04-03T08:49:57;41.53;;;8.20;;
4616;SDS011;2321;42.704;23.384;2023-04-03T08:52:29;44.20;;;7.90;;
4616;SDS011;2321;42.704;23.384;2023-04-03T08:55:01;40.17;;;8.80;;
4616;SDS011;2321;42.704;23.384;2023-04-03T08:57:33;36.37;;;7.50;;
4616;SDS011;2321;42.704;23.384;2023-04-03T09:00:04;34.57;;;7.17;;
4616;SDS011;2321;42.704;23.384;2023-04-03T09:02:34;48.00;;;10.53;;
4616;SDS011;2321;42.704;23.384;2023-04-03T09:05:09;52.37;;;10.30;;
4616;SDS011;2321;42.704;23.384;2023-04-03T09:07:39;51.67;;;9.50;;
4616;SDS011;2321;42.704;23.384;2023-04-03T09:10:11;42.93;;;8.27;;
4616;SDS011;2321;42.704;23.384;2023-04-03T09:12:41;42.20;;;8.97;;
4616;SDS011;2321;42.704;23.384;2023-04-03T09:15:18;36.07;;;8.97;;
4616;SDS011;2321;42.704;23.384;2023-04-03T09:17:50;35.20;;;8.60;;
4616;SDS011;2321;42.704;23.384;2023-04-03T09:20:26;44.03;;;10.13;;
4616;SDS011;2321;42.704;23.384;2023-04-03T09:23:04;38.17;;;7.57;;
4616;SDS011;2321;42.704;23.384;2023-04-03T09:25:40;31.30;;;6.73;;
4616;SDS011;2321;42.704;23.384;2023-04-03T09:28:08;40.07;;;8.50;;
4616;SDS011;2321;42.704;23.384;2023-04-03T09:30:36;45.27;;;9.60;;
4616;SDS011;2321;42.704;23.384;2023-04-03T09:33:03;44.50;;;8.93;;
4616;SDS011;2321;42.704;23.384;2023-04-03T09:35:31;44.73;;;9.53;;
4616;SDS011;2321;42.704;23.384;2023-04-03T09:38:00;41.33;;;9.30;;
4616;SDS011;2321;42.704;23.384;2023-04-03T09:40:33;45.57;;;9.13;;
4616;SDS011;2321;42.704;23.384;2023-04-03T09:45:51;29.40;;;5.87;;
4616;SDS011;2321;42.704;23.384;2023-04-03T09:48:19;49.40;;;10.37;;
4616;SDS011;2321;42.704;23.384;2023-04-03T09:50:58;51.33;;;9.80;;
4616;SDS011;2321;42.704;23.384;2023-04-03T09:53:29;41.20;;;7.83;;
4616;SDS011;2321;42.704;23.384;2023-04-03T09:55:59;34.17;;;8.13;;
4616;SDS011;2321;42.704;23.384;2023-04-03T09:58:30;38.27;;;7.77;;
4616;SDS011;2321;42.704;23.384;2023-04-03T10:01:01;36.57;;;5.80;;
4616;SDS011;2321;42.704;23.384;2023-04-03T10:03:29;58.83;;;8.13;;
4616;SDS011;2321;42.704;23.384;2023-04-03T10:05:59;49.13;;;8.93;;
4616;SDS011;2321;42.704;23.384;2023-04-03T10:08:28;38.43;;;7.40;;
4616;SDS011;2321;42.704;23.384;2023-04-03T10:11:06;46.77;;;7.27;;
4616;SDS011;2321;42.704;23.384;2023-04-03T10:13:36;51.07;;;8.47;;
4616;SDS011;2321;42.704;23.384;2023-04-03T10:16:17;42.27;;;7.20;;
4616;SDS011;2321;42.704;23.384;2023-04-03T10:18:49;46.33;;;8.03;;
4616;SDS011;2321;42.704;23.384;2023-04-03T10:21:29;55.47;;;8.73;;
4616;SDS011;2321;42.704;23.384;2023-04-03T10:24:04;43.73;;;7.37;;
4616;SDS011;2321;42.704;23.384;2023-04-03T10:26:39;49.53;;;7.37;;
4616;SDS011;2321;42.704;23.384;2023-04-03T10:29:16;37.70;;;6.37;;
4616;SDS011;2321;42.704;23.384;2023-04-03T10:31:57;60.77;;;10.70;;
4616;SDS011;2321;42.704;23.384;2023-04-03T10:34:29;30.87;;;6.33;;
4616;SDS011;2321;42.704;23.384;2023-04-03T10:37:01;38.33;;;7.77;;
4616;SDS011;2321;42.704;23.384;2023-04-03T10:39:38;50.30;;;10.27;;
4616;SDS011;2321;42.704;23.384;2023-04-03T10:42:15;49.43;;;9.70;;
4616;SDS011;2321;42.704;23.384;2023-04-03T10:44:56;37.77;;;8.17;;
4616;SDS011;2321;42.704;23.384;2023-04-03T10:47:36;42.07;;;8.17;;
4616;SDS011;2321;42.704;23.384;2023-04-03T10:50:22;56.13;;;10.27;;
4616;SDS011;2321;42.704;23.384;2023-04-03T10:52:56;40.20;;;7.77;;
4616;SDS011;2321;42.704;23.384;2023-04-03T10:55:30;38.07;;;7.70;;
4616;SDS011;2321;42.704;23.384;2023-04-03T10:58:03;37.03;;;7.63;;
4616;SDS011;2321;42.704;23.384;2023-04-03T11:00:35;42.20;;;9.17;;
4616;SDS011;2321;42.704;23.384;2023-04-03T11:03:06;35.33;;;7.53;;
4616;SDS011;2321;42.704;23.384;2023-04-03T11:05:39;40.23;;;7.50;;
4616;SDS011;2321;42.704;23.384;2023-04-03T11:08:11;40.77;;;6.23;;
4616;SDS011;2321;42.704;23.384;2023-04-03T11:10:46;37.27;;;8.17;;
4616;SDS011;2321;42.704;23.384;2023-04-03T11:13:17;37.50;;;7.77;;
4616;SDS011;2321;42.704;23.384;2023-04-03T11:15:49;49.23;;;8.93;;
4616;SDS011;2321;42.704;23.384;2023-04-03T11:18:20;41.40;;;8.20;;
4616;SDS011;2321;42.704;23.384;2023-04-03T11:20:53;37.17;;;15.80;;
4616;SDS011;2321;42.704;23.384;2023-04-03T11:23:26;35.90;;;8.07;;
4616;SDS011;2321;42.704;23.384;2023-04-03T11:25:59;42.93;;;8.20;;
4616;SDS011;2321;42.704;23.384;2023-04-03T11:28:34;45.60;;;8.80;;
4616;SDS011;2321;42.704;23.384;2023-04-03T11:31:06;38.47;;;9.63;;
4616;SDS011;2321;42.704;23.384;2023-04-03T11:33:43;44.17;;;8.50;;
4616;SDS011;2321;42.704;23.384;2023-04-03T11:36:19;34.23;;;5.77;;
4616;SDS011;2321;42.704;23.384;2023-04-03T11:38:51;33.60;;;6.10;;
4616;SDS011;2321;42.704;23.384;2023-04-03T11:41:24;33.87;;;5.60;;
4616;SDS011;2321;42.704;23.384;2023-04-03T11:43:58;46.00;;;7.20;;
4616;SDS011;2321;42.704;23.384;2023-04-03T11:58:18;39.40;;;6.77;;
4616;SDS011;2321;42.704;23.384;2023-04-03T12:00:56;28.63;;;4.70;;
4616;SDS011;2321;42.704;23.384;2023-04-03T12:03:31;34.67;;;6.80;;
4616;SDS011;2321;42.704;23.384;2023-04-03T12:09:27;66.47;;;10.17;;
4616;SDS011;2321;42.704;23.384;2023-04-03T12:11:58;26.63;;;4.80;;
4616;SDS011;2321;42.704;23.384;2023-04-03T12:14:27;34.53;;;6.13;;
4616;SDS011;2321;42.704;23.384;2023-04-03T12:16:55;55.50;;;8.77;;
4616;SDS011;2321;42.704;23.384;2023-04-03T12:19:33;27.43;;;5.13;;
4616;SDS011;2321;42.704;23.384;2023-04-03T12:24:48;46.60;;;7.63;;
4616;SDS011;2321;42.704;23.384;2023-04-03T12:27:19;28.27;;;5.40;;
4616;SDS011;2321;42.704;23.384;2023-04-03T12:29:53;33.00;;;5.90;;
4616;SDS011;2321;42.704;23.384;2023-04-03T12:35:31;32.07;;;5.30;;
4616;SDS011;2321;42.704;23.384;2023-04-03T12:38:18;32.30;;;5.27;;
4616;SDS011;2321;42.704;23.384;2023-04-03T12:40:56;37.30;;;6.07;;
4616;SDS011;2321;42.704;23.384;2023-04-03T12:43:37;31.77;;;4.60;;
4616;SDS011;2321;42.704;23.384;2023-04-03T12:46:11;29.73;;;4.97;;
4616;SDS011;2321;42.704;23.384;2023-04-03T12:48:47;41.67;;;6.60;;
4616;SDS011;2321;42.704;23.384;2023-04-03T12:51:18;25.03;;;4.30;;
4616;SDS011;2321;42.704;23.384;2023-04-03T12:53:48;37.90;;;6.70;;
4616;SDS011;2321;42.704;23.384;2023-04-03T12:56:24;36.90;;;5.40;;
4616;SDS011;2321;42.704;23.384;2023-04-03T12:58:53;40.27;;;7.20;;
4616;SDS011;2321;42.704;23.384;2023-04-03T13:01:23;27.90;;;4.73;;
4616;SDS011;2321;42.704;23.384;2023-04-03T13:03:52;38.80;;;6.17;;
4616;SDS011;2321;42.704;23.384;2023-04-03T13:06:23;35.97;;;6.20;;
4616;SDS011;2321;42.704;23.384;2023-04-03T13:08:53;40.93;;;6.80;;
4616;SDS011;2321;42.704;23.384;2023-04-03T13:11:23;44.20;;;7.27;;
4616;SDS011;2321;42.704;23.384;2023-04-03T13:13:58;38.97;;;6.50;;
4616;SDS011;2321;42.704;23.384;2023-04-03T13:16:26;30.47;;;6.23;;
4616;SDS011;2321;42.704;23.384;2023-04-03T13:18:54;35.17;;;6.13;;
4616;SDS011;2321;42.704;23.384;2023-04-03T13:21:23;54.17;;;9.03;;
4616;SDS011;2321;42.704;23.384;2023-04-03T13:23:53;42.60;;;6.70;;
4616;SDS011;2321;42.704;23.384;2023-04-03T13:26:23;27.77;;;5.40;;
4616;SDS011;2321;42.704;23.384;2023-04-03T13:28:52;23.20;;;4.00;;
4616;SDS011;2321;42.704;23.384;2023-04-03T13:31:22;29.63;;;5.20;;
4616;SDS011;2321;42.704;23.384;2023-04-03T13:33:53;30.53;;;5.90;;
4616;SDS011;2321;42.704;23.384;2023-04-03T13:36:25;29.30;;;4.93;;
4616;SDS011;2321;42.704;23.384;2023-04-03T13:38:59;33.53;;;5.43;;
4616;SDS011;2321;42.704;23.384;2023-04-03T13:41:30;15.37;;;3.63;;
4616;SDS011;2321;42.704;23.384;2023-04-03T13:46:56;26.93;;;5.07;;
4616;SDS011;2321;42.704;23.384;2023-04-03T13:49:29;19.40;;;3.93;;
4616;SDS011;2321;42.704;23.384;2023-04-03T13:52:00;26.87;;;4.60;;
4616;SDS011;2321;42.704;23.384;2023-04-03T13:54:31;24.80;;;4.60;;
4616;SDS011;2321;42.704;23.384;2023-04-03T13:57:00;53.23;;;8.53;;
4616;SDS011;2321;42.704;23.384;2023-04-03T13:59:29;32.80;;;7.60;;
4616;SDS011;2321;42.704;23.384;2023-04-03T14:02:11;30.97;;;9.27;;
4616;SDS011;2321;42.704;23.384;2023-04-03T14:04:47;31.60;;;5.70;;
4616;SDS011;2321;42.704;23.384;2023-04-03T14:07:19;41.20;;;5.93;;
4616;SDS011;2321;42.704;23.384;2023-04-03T14:09:46;22.60;;;4.20;;
4616;SDS011;2321;42.704;23.384;2023-04-03T14:12:14;35.00;;;5.57;;
4616;SDS011;2321;42.704;23.384;2023-04-03T14:14:43;26.23;;;4.47;;
4616;SDS011;2321;42.704;23.384;2023-04-03T14:17:13;30.80;;;5.57;;
4616;SDS011;2321;42.704;23.384;2023-04-03T14:19:42;27.57;;;4.30;;
4616;SDS011;2321;42.704;23.384;2023-04-03T14:22:12;27.90;;;4.60;;
4616;SDS011;2321;42.704;23.384;2023-04-03T14:24:43;18.40;;;3.53;;
4616;SDS011;2321;42.704;23.384;2023-04-03T14:27:14;20.13;;;3.90;;
4616;SDS011;2321;42.704;23.384;2023-04-03T14:29:43;29.77;;;5.13;;
4616;SDS011;2321;42.704;23.384;2023-04-03T14:32:11;35.37;;;5.33;;
4616;SDS011;2321;42.704;23.384;2023-04-03T14:34:39;29.80;;;4.70;;
4616;SDS011;2321;42.704;23.384;2023-04-03T14:37:09;40.57;;;6.13;;
4616;SDS011;2321;42.704;23.384;2023-04-03T14:39:36;35.80;;;6.97;;
4616;SDS011;2321;42.704;23.384;2023-04-03T14:42:05;30.57;;;5.97;;
4616;SDS011;2321;42.704;23.384;2023-04-03T14:44:32;38.17;;;6.00;;
4616;SDS011;2321;42.704;23.384;2023-04-03T14:46:59;33.47;;;5.20;;
4616;SDS011;2321;42.704;23.384;2023-04-03T14:49:27;29.90;;;6.30;;
4616;SDS011;2321;42.704;23.384;2023-04-03T14:51:55;32.27;;;5.50;;
4616;SDS011;2321;42.704;23.384;2023-04-03T14:54:22;31.43;;;5.17;;
4616;SDS011;2321;42.704;23.384;2023-04-03T14:56:52;25.37;;;4.20;;
4616;SDS011;2321;42.704;23.384;2023-04-03T14:59:21;42.63;;;6.93;;
4616;SDS011;2321;42.704;23.384;2023-04-03T15:01:49;45.73;;;7.17;;
4616;SDS011;2321;42.704;23.384;2023-04-03T15:04:16;35.07;;;5.77;;
4616;SDS011;2321;42.704;23.384;2023-04-03T15:06:44;40.17;;;6.37;;
4616;SDS011;2321;42.704;23.384;2023-04-03T15:09:15;19.40;;;5.40;;
4616;SDS011;2321;42.704;23.384;2023-04-03T15:11:46;34.57;;;6.07;;
4616;SDS011;2321;42.704;23.384;2023-04-03T15:14:13;27.57;;;5.67;;
4616;SDS011;2321;42.704;23.384;2023-04-03T15:16:41;25.43;;;4.20;;
4616;SDS011;2321;42.704;23.384;2023-04-03T15:19:08;26.67;;;4.13;;
4616;SDS011;2321;42.704;23.384;2023-04-03T15:21:36;27.80;;;4.37;;